createdAt,value
2019-05-22T00:00:41.482Z,11.70
2019-05-22T00:03:13.212Z,11.60
2019-05-22T00:05:45.041Z,11.60
2019-05-22T00:08:16.556Z,11.60
2019-05-22T00:10:49.489Z,11.60
2019-05-22T00:13:22.755Z,11.60
2019-05-22T00:15:54.610Z,11.50
2019-05-22T00:18:25.728Z,11.60
2019-05-22T00:20:57.074Z,11.60
2019-05-22T00:23:28.519Z,11.50
2019-05-22T00:25:58.115Z,11.60
2019-05-22T00:28:30.374Z,11.60
2019-05-22T00:31:00.657Z,11.60
2019-05-22T00:33:31.235Z,11.60
2019-05-22T00:36:02.087Z,11.60
2019-05-22T00:38:33.970Z,11.60
2019-05-22T00:41:07.638Z,11.60
2019-05-22T00:43:42.067Z,11.60
2019-05-22T00:46:16.742Z,11.60
2019-05-22T00:48:48.307Z,11.60
2019-05-22T00:51:47.186Z,11.50
2019-05-22T00:54:34.078Z,11.50
2019-05-22T00:57:14.809Z,11.50
2019-05-22T00:59:45.795Z,11.40
2019-05-22T01:02:21.271Z,11.50
2019-05-22T01:04:52.046Z,11.50
2019-05-22T01:07:30.093Z,11.50
2019-05-22T01:10:02.715Z,11.50
2019-05-22T01:12:42.312Z,11.60
2019-05-22T01:15:15.757Z,11.60
2019-05-22T01:17:47.077Z,11.50
2019-05-22T01:20:18.827Z,11.50
2019-05-22T01:22:49.540Z,11.50
2019-05-22T01:25:22.447Z,11.50
2019-05-22T01:27:52.487Z,11.50
2019-05-22T01:30:29.047Z,11.50
2019-05-22T01:33:01.586Z,11.50
2019-05-22T01:35:36.338Z,11.40
2019-05-22T01:38:06.919Z,11.40
2019-05-22T01:40:45.191Z,11.40
2019-05-22T01:43:19.998Z,11.40
2019-05-22T01:45:52.523Z,11.40
2019-05-22T01:48:27.428Z,11.40
2019-05-22T01:50:57.952Z,11.40
2019-05-22T01:53:36.002Z,11.40
2019-05-22T01:56:08.319Z,11.50
2019-05-22T01:58:41.314Z,11.50
2019-05-22T02:01:16.878Z,11.50
2019-05-22T02:03:47.586Z,11.50
2019-05-22T02:06:19.338Z,11.50
2019-05-22T02:08:53.197Z,11.50
2019-05-22T02:11:26.773Z,11.50
2019-05-22T02:14:07.795Z,11.50
2019-05-22T02:16:55.655Z,11.40
2019-05-22T02:19:12.918Z,11.40
2019-05-22T02:21:44.102Z,11.40
2019-05-22T02:24:14.012Z,11.30
2019-05-22T02:26:45.426Z,11.30
2019-05-22T02:29:16.846Z,11.30
2019-05-22T02:31:48.037Z,11.30
2019-05-22T02:34:18.277Z,11.30
2019-05-22T02:36:48.116Z,11.30
2019-05-22T02:39:29.282Z,11.30
2019-05-22T02:42:06.444Z,11.30
2019-05-22T02:44:38.098Z,11.30
2019-05-22T02:47:19.063Z,11.30
2019-05-22T02:49:41.600Z,11.40
2019-05-22T02:52:13.085Z,11.40
2019-05-22T02:54:43.299Z,11.40
2019-05-22T02:57:13.637Z,11.50
2019-05-22T02:59:43.618Z,11.50
2019-05-22T03:02:16.257Z,11.50
2019-05-22T03:05:08.789Z,11.40
2019-05-22T03:07:41.152Z,11.40
2019-05-22T03:10:18.135Z,11.40
2019-05-22T03:12:50.838Z,11.40
2019-05-22T03:15:24.198Z,11.50
2019-05-22T03:18:01.861Z,11.50
2019-05-22T03:20:35.739Z,11.50
2019-05-22T03:23:37.757Z,11.50
2019-05-22T03:26:10.204Z,11.50
2019-05-22T03:28:40.730Z,11.50
2019-05-22T03:31:12.119Z,11.40
2019-05-22T03:33:42.790Z,11.40
2019-05-22T03:36:17.615Z,11.40
2019-05-22T03:38:48.641Z,11.40
2019-05-22T03:41:19.456Z,11.40
2019-05-22T03:43:50.971Z,11.40
2019-05-22T03:46:31.623Z,11.40
2019-05-22T03:49:03.505Z,11.30
2019-05-22T03:51:33.849Z,11.40
2019-05-22T03:54:05.663Z,11.40
2019-05-22T03:56:40.920Z,11.40
2019-05-22T03:59:11.157Z,11.40
2019-05-22T04:01:42.591Z,11.40
2019-05-22T04:04:16.182Z,11.40
2019-05-22T04:06:47.937Z,11.40
2019-05-22T04:09:22.390Z,11.40
2019-05-22T04:11:54.904Z,11.40
2019-05-22T04:14:35.736Z,11.40
2019-05-22T04:17:08.324Z,11.40
2019-05-22T04:19:49.432Z,11.30
2019-05-22T04:22:11.153Z,11.30
2019-05-22T04:24:41.366Z,11.30
2019-05-22T04:27:11.850Z,11.20
2019-05-22T04:29:42.490Z,11.30
2019-05-22T04:32:31.289Z,11.30
2019-05-22T04:35:03.063Z,11.40
2019-05-22T04:37:33.036Z,11.60
2019-05-22T04:40:56.667Z,11.80
2019-05-22T04:43:30.758Z,11.80
2019-05-22T04:46:03.603Z,11.90
2019-05-22T04:48:36.340Z,11.80
2019-05-22T04:51:32.460Z,11.70
2019-05-22T04:54:02.148Z,11.70
2019-05-22T04:56:32.350Z,11.70
2019-05-22T04:59:03.573Z,11.90
2019-05-22T05:01:33.879Z,12.20
2019-05-22T05:04:04.567Z,12.60
2019-05-22T05:06:36.052Z,13.70
2019-05-22T05:09:10.535Z,14.90
2019-05-22T05:11:40.603Z,16.00
2019-05-22T05:14:10.279Z,17.10
2019-05-22T05:16:40.026Z,18.00
2019-05-22T05:19:09.690Z,18.90
2019-05-22T05:21:39.888Z,19.50
2019-05-22T05:24:09.745Z,20.20
2019-05-22T05:26:40.554Z,20.50
2019-05-22T05:29:26.662Z,20.80
2019-05-22T05:31:58.889Z,21.00
2019-05-22T05:34:52.609Z,21.50
2019-05-22T05:37:24.990Z,21.90
2019-05-22T05:40:33.553Z,22.30
2019-05-22T05:43:04.585Z,22.30
2019-05-22T05:45:35.056Z,22.20
2019-05-22T05:48:08.285Z,22.30
2019-05-22T05:50:40.630Z,22.00
2019-05-22T05:53:16.585Z,22.10
2019-05-22T05:56:08.182Z,22.20
2019-05-22T05:58:38.411Z,22.20
2019-05-22T06:01:22.340Z,22.40
2019-05-22T06:03:53.015Z,22.50
2019-05-22T06:07:14.047Z,22.80
2019-05-22T06:09:45.906Z,22.90
2019-05-22T06:12:15.746Z,23.20
2019-05-22T06:14:46.808Z,23.40
2019-05-22T06:18:01.011Z,23.30
2019-05-22T06:20:31.305Z,23.00
2019-05-22T06:23:42.131Z,23.10
2019-05-22T06:26:21.551Z,23.30
2019-05-22T06:28:52.910Z,23.10
2019-05-22T06:31:35.254Z,23.40
2019-05-22T06:34:05.541Z,23.20
2019-05-22T06:36:37.043Z,22.60
2019-05-22T06:39:13.769Z,22.60
2019-05-22T06:41:45.197Z,22.50
2019-05-22T06:44:43.892Z,22.20
2019-05-22T06:47:23.228Z,21.60
2019-05-22T06:49:57.306Z,20.70
2019-05-22T06:52:27.440Z,20.10
2019-05-22T06:54:57.594Z,19.60
2019-05-22T06:57:28.285Z,19.50
2019-05-22T07:00:12.976Z,19.40
2019-05-22T07:02:33.750Z,19.30
2019-05-22T07:05:05.005Z,19.20
2019-05-22T07:07:34.843Z,19.20
2019-05-22T07:10:06.566Z,19.50
2019-05-22T07:12:37.036Z,19.50
2019-05-22T07:15:34.061Z,20.00
2019-05-22T07:18:04.141Z,20.40
2019-05-22T07:20:38.015Z,20.50
2019-05-22T07:23:10.994Z,20.80
2019-05-22T07:25:42.763Z,21.10
2019-05-22T07:28:13.066Z,21.40
2019-05-22T07:30:42.710Z,21.40
2019-05-22T07:33:13.158Z,21.00
2019-05-22T07:36:04.676Z,20.80
2019-05-22T07:38:16.979Z,20.80
2019-05-22T07:40:50.346Z,21.20
2019-05-22T07:43:20.356Z,21.90
2019-05-22T07:45:53.277Z,21.90
2019-05-22T07:48:28.782Z,22.00
2019-05-22T07:50:59.122Z,21.60
2019-05-22T07:53:29.436Z,21.50
2019-05-22T07:56:02.449Z,22.10
2019-05-22T07:58:32.971Z,22.50
2019-05-22T08:01:03.309Z,22.80
2019-05-22T08:03:34.132Z,23.20
2019-05-22T08:06:05.293Z,23.70
2019-05-22T08:08:35.974Z,23.50
2019-05-22T08:11:06.363Z,23.60
2019-05-22T08:13:37.717Z,23.80
2019-05-22T08:16:08.472Z,23.90
2019-05-22T08:18:39.491Z,24.30
2019-05-22T08:21:11.625Z,24.60
2019-05-22T08:23:41.962Z,24.40
2019-05-22T08:26:12.823Z,23.50
2019-05-22T08:28:43.147Z,22.80
2019-05-22T08:31:15.664Z,22.60
2019-05-22T08:33:46.171Z,22.40
2019-05-22T08:36:16.246Z,22.10
2019-05-22T08:38:46.666Z,22.10
2019-05-22T08:41:19.924Z,22.70
2019-05-22T08:44:13.711Z,23.00
2019-05-22T08:46:22.888Z,23.30
2019-05-22T08:48:54.263Z,24.10
2019-05-22T08:51:25.750Z,24.60
2019-05-22T08:53:57.179Z,24.80
2019-05-22T08:56:27.014Z,24.70
2019-05-22T08:58:57.414Z,24.60
2019-05-22T09:01:27.614Z,24.50
2019-05-22T09:03:57.269Z,24.30
2019-05-22T09:06:26.984Z,23.80
2019-05-22T09:08:56.792Z,23.60
2019-05-22T09:11:26.711Z,24.00
2019-05-22T09:13:56.550Z,24.00
2019-05-22T09:16:26.489Z,23.60
2019-05-22T09:18:56.526Z,23.60
2019-05-22T09:21:26.860Z,23.80
2019-05-22T09:23:56.713Z,23.70
2019-05-22T09:26:26.826Z,23.40
2019-05-22T09:28:56.615Z,23.10
2019-05-22T09:31:26.301Z,23.20
2019-05-22T09:33:55.987Z,23.60
2019-05-22T09:36:25.662Z,23.90
2019-05-22T09:38:55.359Z,23.80
2019-05-22T09:41:25.238Z,23.60
2019-05-22T09:43:54.862Z,23.40
2019-05-22T09:46:25.650Z,23.40
2019-05-22T09:48:56.831Z,23.30
2019-05-22T09:51:26.654Z,23.20
2019-05-22T09:53:56.627Z,23.20
2019-05-22T09:56:28.406Z,22.80
2019-05-22T09:58:58.085Z,22.60
2019-05-22T10:01:27.775Z,22.60
2019-05-22T10:03:58.012Z,22.70
2019-05-22T10:06:27.898Z,22.60
2019-05-22T10:08:57.734Z,22.40
2019-05-22T10:11:28.208Z,21.80
2019-05-22T10:13:59.377Z,21.70
2019-05-22T10:16:29.092Z,21.70
2019-05-22T10:18:59.049Z,21.60
2019-05-22T10:21:29.004Z,21.60
2019-05-22T10:24:00.027Z,21.70
2019-05-22T10:26:29.726Z,21.50
2019-05-22T10:29:00.360Z,21.40
2019-05-22T10:31:30.690Z,21.30
2019-05-22T10:34:00.887Z,21.40
2019-05-22T10:36:30.861Z,21.30
2019-05-22T10:39:00.492Z,21.40
2019-05-22T10:41:30.693Z,21.30
2019-05-22T10:44:00.480Z,21.30
2019-05-22T10:46:30.272Z,21.20
2019-05-22T10:49:00.555Z,21.00
2019-05-22T10:51:30.618Z,21.10
2019-05-22T10:54:00.314Z,21.20
2019-05-22T10:56:30.231Z,21.20
2019-05-22T10:59:01.631Z,21.00
2019-05-22T11:01:37.013Z,20.90
2019-05-22T11:04:06.063Z,20.80
2019-05-22T11:06:35.962Z,20.90
2019-05-22T11:09:06.727Z,21.10
2019-05-22T11:11:36.722Z,21.20
2019-05-22T11:14:09.695Z,21.20
2019-05-22T11:16:40.050Z,21.10
2019-05-22T11:19:09.858Z,21.00
2019-05-22T11:21:39.554Z,21.10
2019-05-22T11:24:09.718Z,20.90
2019-05-22T11:26:39.402Z,20.60
2019-05-22T11:29:09.118Z,20.10
2019-05-22T11:31:39.784Z,20.00
2019-05-22T11:34:09.543Z,19.90
2019-05-22T11:36:39.197Z,19.50
2019-05-22T11:39:16.711Z,19.40
2019-05-22T11:41:47.588Z,19.40
2019-05-22T11:44:17.549Z,19.20
2019-05-22T11:46:47.165Z,19.40
2019-05-22T11:49:17.182Z,19.40
2019-05-22T11:51:47.459Z,19.30
2019-05-22T11:54:17.104Z,19.30
2019-05-22T11:56:47.940Z,19.30
2019-05-22T11:59:17.908Z,19.30
2019-05-22T12:01:47.675Z,19.30
2019-05-22T12:04:17.308Z,19.20
2019-05-22T12:06:53.079Z,19.30
2019-05-22T12:09:21.718Z,19.40
2019-05-22T12:11:52.379Z,19.40
2019-05-22T12:14:23.038Z,19.50
2019-05-22T12:16:53.485Z,19.50
2019-05-22T12:19:23.764Z,19.50
2019-05-22T12:21:53.582Z,19.30
2019-05-22T12:24:28.431Z,19.10
2019-05-22T12:26:54.927Z,19.10
2019-05-22T12:29:25.982Z,19.00
2019-05-22T12:31:55.923Z,19.00
2019-05-22T12:34:25.546Z,19.10
2019-05-22T12:36:56.021Z,19.10
2019-05-22T12:39:26.677Z,19.00
2019-05-22T12:41:57.482Z,18.60
2019-05-22T12:44:27.374Z,18.40
2019-05-22T12:46:57.168Z,18.20
2019-05-22T12:49:28.739Z,18.20
2019-05-22T12:51:58.576Z,18.20
2019-05-22T12:54:45.261Z,18.30
2019-05-22T12:57:01.392Z,18.30
2019-05-22T12:59:32.398Z,18.10
2019-05-22T13:02:02.932Z,18.10
2019-05-22T13:04:33.172Z,17.90
2019-05-22T13:07:03.185Z,17.80
2019-05-22T13:09:33.222Z,17.80
2019-05-22T13:12:04.606Z,17.90
2019-05-22T13:14:34.757Z,17.90
2019-05-22T13:17:07.937Z,17.80
2019-05-22T13:19:38.929Z,17.60
2019-05-22T13:22:15.678Z,17.70
2019-05-22T13:24:45.889Z,17.90
2019-05-22T13:27:28.067Z,18.00
2019-05-22T13:29:58.982Z,17.90
2019-05-22T13:32:29.326Z,17.70
2019-05-22T13:35:00.036Z,17.60
2019-05-22T13:37:29.911Z,17.70
2019-05-22T13:39:59.666Z,17.60
2019-05-22T13:42:29.652Z,17.50
2019-05-22T13:44:59.259Z,17.30
2019-05-22T13:47:28.972Z,17.30
2019-05-22T13:49:58.783Z,17.50
2019-05-22T13:52:29.034Z,17.70
2019-05-22T13:54:59.359Z,17.80
2019-05-22T13:57:29.788Z,17.90
2019-05-22T13:59:59.550Z,17.90
2019-05-22T14:02:29.404Z,17.90
2019-05-22T14:05:00.507Z,17.70
2019-05-22T14:07:30.767Z,17.60
2019-05-22T14:10:01.014Z,17.70
2019-05-22T14:12:31.210Z,17.80
2019-05-22T14:15:01.083Z,17.90
2019-05-22T14:17:31.251Z,18.00
2019-05-22T14:20:01.318Z,18.10
2019-05-22T14:22:31.047Z,18.20
2019-05-22T14:25:00.782Z,18.20
2019-05-22T14:27:30.655Z,18.20
2019-05-22T14:30:01.584Z,18.30
2019-05-22T14:32:32.647Z,18.20
2019-05-22T14:35:02.463Z,18.20
2019-05-22T14:37:32.598Z,18.10
2019-05-22T14:40:02.486Z,18.10
2019-05-22T14:42:32.240Z,18.10
2019-05-22T14:45:02.196Z,18.10
2019-05-22T14:47:32.239Z,18.10
2019-05-22T14:50:02.188Z,18.10
2019-05-22T14:52:32.671Z,18.00
2019-05-22T14:55:03.076Z,18.10
2019-05-22T14:57:33.265Z,18.20
2019-05-22T15:00:03.269Z,18.20
2019-05-22T15:02:33.672Z,18.10
2019-05-22T15:05:04.178Z,18.10
2019-05-22T15:07:33.786Z,18.20
2019-05-22T15:10:04.346Z,18.30
2019-05-22T15:12:34.682Z,18.30
2019-05-22T15:15:04.816Z,18.20
2019-05-22T15:17:34.494Z,18.20
2019-05-22T15:20:04.538Z,18.20
2019-05-22T15:22:34.930Z,18.30
2019-05-22T15:25:06.223Z,18.40
2019-05-22T15:27:37.110Z,18.60
2019-05-22T15:30:06.980Z,18.80
2019-05-22T15:32:36.860Z,18.80
2019-05-22T15:35:07.919Z,18.60
2019-05-22T15:37:38.495Z,18.50
2019-05-22T15:40:09.025Z,18.30
2019-05-22T15:42:40.979Z,18.30
2019-05-22T15:45:13.669Z,18.30
2019-05-22T15:47:54.703Z,18.40
2019-05-22T15:50:21.045Z,18.50
2019-05-22T15:52:57.144Z,18.40
2019-05-22T15:55:29.922Z,18.30
2019-05-22T15:58:00.476Z,18.30
2019-05-22T16:00:34.405Z,18.20
2019-05-22T16:03:10.677Z,18.20
2019-05-22T16:05:41.971Z,18.10
2019-05-22T16:08:13.251Z,18.00
2019-05-22T16:10:44.785Z,18.10
2019-05-22T16:13:16.230Z,18.20
2019-05-22T16:15:48.306Z,18.20
2019-05-22T16:18:22.075Z,18.10
2019-05-22T16:20:53.036Z,18.00
2019-05-22T16:23:23.072Z,18.00
2019-05-22T16:25:53.195Z,18.20
2019-05-22T16:28:23.883Z,18.20
2019-05-22T16:30:54.711Z,18.20
2019-05-22T16:33:25.213Z,18.20
2019-05-22T16:35:54.962Z,18.00
2019-05-22T16:38:25.431Z,17.90
2019-05-22T16:40:55.921Z,17.90
2019-05-22T16:43:45.409Z,18.00
2019-05-22T16:46:00.058Z,18.00
2019-05-22T16:48:29.801Z,18.00
2019-05-22T16:50:59.805Z,17.90
2019-05-22T16:53:31.323Z,17.80
2019-05-22T16:56:01.513Z,17.70
2019-05-22T16:58:31.486Z,17.60
2019-05-22T17:01:02.517Z,17.60
2019-05-22T17:03:33.664Z,17.70
2019-05-22T17:06:03.472Z,17.60
2019-05-22T17:08:33.861Z,17.60
2019-05-22T17:11:06.724Z,17.60
2019-05-22T17:13:37.607Z,17.70
2019-05-22T17:16:08.418Z,17.80
2019-05-22T17:18:47.412Z,17.70
2019-05-22T17:21:10.522Z,17.70
2019-05-22T17:23:41.282Z,17.80
2019-05-22T17:26:11.185Z,17.80
2019-05-22T17:28:41.630Z,17.90
2019-05-22T17:31:11.690Z,17.90
2019-05-22T17:33:41.755Z,17.90
2019-05-22T17:36:12.023Z,18.00
2019-05-22T17:38:42.044Z,17.90
2019-05-22T17:41:12.451Z,17.90
2019-05-22T17:43:43.504Z,17.70
2019-05-22T17:46:15.839Z,17.60
2019-05-22T17:48:47.491Z,17.70
2019-05-22T17:51:17.305Z,17.70
2019-05-22T17:53:47.419Z,17.60
2019-05-22T17:56:18.091Z,17.50
2019-05-22T17:58:47.866Z,17.50
2019-05-22T18:01:18.734Z,17.40
2019-05-22T18:03:48.523Z,17.30
2019-05-22T18:06:18.862Z,17.30
2019-05-22T18:08:48.526Z,17.40
2019-05-22T18:11:18.182Z,17.50
2019-05-22T18:13:59.739Z,17.50
2019-05-22T18:16:29.684Z,17.50
2019-05-22T18:19:00.002Z,17.40
2019-05-22T18:21:29.853Z,17.40
2019-05-22T18:24:00.770Z,17.50
2019-05-22T18:26:30.821Z,17.60
2019-05-22T18:29:01.698Z,17.60
2019-05-22T18:31:31.704Z,17.50
2019-05-22T18:34:01.526Z,17.40
2019-05-22T18:36:31.294Z,17.40
2019-05-22T18:39:01.032Z,17.40
2019-05-22T18:41:31.372Z,17.40
2019-05-22T18:44:01.694Z,17.40
2019-05-22T18:46:31.558Z,17.40
2019-05-22T18:49:01.154Z,17.10
2019-05-22T18:51:31.330Z,16.90
2019-05-22T18:54:00.996Z,16.80
2019-05-22T18:56:30.791Z,16.80
2019-05-22T18:59:00.406Z,16.70
2019-05-22T19:01:30.174Z,16.70
2019-05-22T19:04:00.345Z,16.60
2019-05-22T19:06:30.901Z,16.60
2019-05-22T19:09:01.082Z,16.50
2019-05-22T19:11:31.900Z,16.40
2019-05-22T19:14:01.812Z,16.30
2019-05-22T19:16:32.858Z,16.30
2019-05-22T19:19:02.500Z,16.30
2019-05-22T19:21:32.398Z,16.20
2019-05-22T19:24:03.096Z,16.20
2019-05-22T19:26:33.982Z,16.20
2019-05-22T19:29:04.522Z,16.10
2019-05-22T19:31:34.514Z,16.00
2019-05-22T19:34:04.374Z,15.90
2019-05-22T19:36:34.162Z,15.80
2019-05-22T19:39:05.550Z,15.70
2019-05-22T19:41:35.174Z,15.60
2019-05-22T19:44:06.325Z,15.50
2019-05-22T19:46:36.114Z,15.50
2019-05-22T19:49:06.516Z,15.40
2019-05-22T19:51:37.243Z,15.30
2019-05-22T19:54:07.684Z,15.20
2019-05-22T19:56:38.528Z,15.20
2019-05-22T19:59:08.543Z,15.20
2019-05-22T20:01:38.599Z,15.10
2019-05-22T20:04:08.922Z,15.10
2019-05-22T20:06:38.875Z,15.00
2019-05-22T20:09:10.051Z,15.00
2019-05-22T20:11:40.421Z,14.90
2019-05-22T20:14:10.654Z,14.90
2019-05-22T20:16:40.435Z,14.80
2019-05-22T20:19:10.760Z,14.70
2019-05-22T20:21:41.266Z,14.70
2019-05-22T20:24:10.933Z,14.60
2019-05-22T20:26:40.634Z,14.60
2019-05-22T20:29:12.281Z,14.50
2019-05-22T20:31:41.990Z,14.40
2019-05-22T20:34:12.176Z,14.30
2019-05-22T20:36:43.029Z,14.30
2019-05-22T20:39:14.548Z,14.30
2019-05-22T20:41:45.140Z,14.30
2019-05-22T20:44:15.412Z,14.20
2019-05-22T20:46:46.763Z,14.20
2019-05-22T20:49:16.663Z,14.10
2019-05-22T20:51:47.037Z,14.00
2019-05-22T20:54:17.031Z,13.90
2019-05-22T20:56:50.142Z,13.80
2019-05-22T20:59:21.490Z,13.80
2019-05-22T21:01:51.774Z,13.70
2019-05-22T21:04:22.544Z,13.70
2019-05-22T21:07:00.489Z,13.70
2019-05-22T21:09:31.617Z,13.60
2019-05-22T21:12:02.093Z,13.50
2019-05-22T21:14:31.886Z,13.40
2019-05-22T21:17:02.223Z,13.40
2019-05-22T21:19:32.099Z,13.40
2019-05-22T21:22:02.643Z,13.40
2019-05-22T21:24:36.122Z,13.40
2019-05-22T21:27:06.923Z,13.30
2019-05-22T21:29:36.958Z,13.30
2019-05-22T21:32:07.442Z,13.30
2019-05-22T21:34:37.498Z,13.20
2019-05-22T21:37:07.662Z,13.20
2019-05-22T21:39:38.299Z,13.10
2019-05-22T21:42:09.410Z,13.00
2019-05-22T21:44:39.919Z,13.00
2019-05-22T21:47:10.431Z,13.00
2019-05-22T21:49:40.807Z,12.90
2019-05-22T21:52:11.318Z,12.90
2019-05-22T21:54:40.956Z,12.80
2019-05-22T21:57:11.483Z,12.80
2019-05-22T21:59:41.434Z,12.70
2019-05-22T22:02:18.486Z,12.80
2019-05-22T22:04:48.829Z,12.70
2019-05-22T22:07:19.302Z,12.70
2019-05-22T22:09:49.918Z,12.60
2019-05-22T22:12:23.732Z,12.60
2019-05-22T22:14:53.910Z,12.60
2019-05-22T22:17:26.449Z,12.50
2019-05-22T22:19:56.277Z,12.50
2019-05-22T22:22:30.219Z,12.50
2019-05-22T22:25:00.630Z,12.40
2019-05-22T22:27:31.057Z,12.40
2019-05-22T22:30:02.639Z,12.40
2019-05-22T22:32:33.272Z,12.30
2019-05-22T22:35:03.782Z,12.20
2019-05-22T22:37:33.408Z,12.20
2019-05-22T22:40:04.674Z,12.20
2019-05-22T22:42:37.018Z,12.20
2019-05-22T22:45:11.227Z,12.10
2019-05-22T22:47:44.058Z,12.10
2019-05-22T22:50:16.498Z,12.10
2019-05-22T22:52:46.936Z,12.00
2019-05-22T22:55:19.101Z,12.00
2019-05-22T22:57:52.091Z,12.00
2019-05-22T23:00:41.407Z,11.90
2019-05-22T23:03:13.506Z,11.90
2019-05-22T23:05:45.123Z,11.80
2019-05-22T23:08:20.011Z,11.80
2019-05-22T23:10:51.016Z,11.80
2019-05-22T23:13:22.852Z,11.80
2019-05-22T23:15:54.180Z,11.80
2019-05-22T23:19:11.085Z,11.80
2019-05-22T23:21:40.204Z,11.70
2019-05-22T23:24:08.888Z,11.70
2019-05-22T23:26:40.358Z,11.60
2019-05-22T23:29:11.433Z,11.60
2019-05-22T23:31:41.174Z,11.60
2019-05-22T23:34:11.354Z,11.60
2019-05-22T23:36:41.302Z,11.60
2019-05-22T23:39:12.555Z,11.50
2019-05-22T23:41:43.154Z,11.50
2019-05-22T23:44:14.157Z,11.50
2019-05-22T23:46:44.707Z,11.40
2019-05-22T23:49:14.650Z,11.40
2019-05-22T23:51:45.317Z,11.40
2019-05-22T23:54:16.556Z,11.40
2019-05-22T23:56:46.941Z,11.30
2019-05-22T23:59:18.132Z,11.30
